createdAt,value
2023-04-08T00:01:42.857Z,58.58
2023-04-08T00:04:09.972Z,60.80
2023-04-08T00:06:52.067Z,59.53
2023-04-08T00:09:18.765Z,58.15
2023-04-08T00:11:45.386Z,57.45
2023-04-08T00:14:12.066Z,59.03
2023-04-08T00:16:38.739Z,57.80
2023-04-08T00:19:06.863Z,54.70
2023-04-08T00:21:33.567Z,55.10
2023-04-08T00:24:00.486Z,57.63
2023-04-08T00:26:27.290Z,56.88
2023-04-08T00:28:54.011Z,56.10
2023-04-08T00:31:20.887Z,54.25
2023-04-08T00:33:47.780Z,55.90
2023-04-08T00:36:14.432Z,56.53
2023-04-08T00:38:41.239Z,54.65
2023-04-08T00:41:07.947Z,55.25
2023-04-08T00:43:34.661Z,58.22
2023-04-08T00:46:01.529Z,59.97
2023-04-08T00:48:29.700Z,55.90
2023-04-08T00:50:56.390Z,54.03
2023-04-08T00:53:24.289Z,60.53
2023-04-08T00:55:52.390Z,63.70
2023-04-08T00:58:19.386Z,59.72
2023-04-08T01:00:53.002Z,60.50
2023-04-08T01:03:42.422Z,59.28
2023-04-08T01:06:28.238Z,60.42
2023-04-08T01:08:55.154Z,62.88
2023-04-08T01:11:21.946Z,61.25
2023-04-08T01:13:51.483Z,63.13
2023-04-08T01:16:19.137Z,64.57
2023-04-08T01:18:47.937Z,69.13
2023-04-08T01:21:16.545Z,70.85
2023-04-08T01:24:04.619Z,67.45
2023-04-08T01:26:31.695Z,63.55
2023-04-08T01:29:01.846Z,65.63
2023-04-08T01:31:29.027Z,74.78
2023-04-08T01:33:57.657Z,73.78
2023-04-08T01:36:26.152Z,74.25
2023-04-08T01:38:52.845Z,74.05
2023-04-08T01:41:21.266Z,72.28
2023-04-08T01:43:49.755Z,77.65
2023-04-08T01:46:17.029Z,75.38
2023-04-08T01:48:45.113Z,81.38
2023-04-08T01:51:12.454Z,75.57
2023-04-08T01:53:39.304Z,84.70
2023-04-08T01:56:09.440Z,85.00
2023-04-08T02:01:17.063Z,83.28
2023-04-08T02:03:45.131Z,78.60
2023-04-08T02:06:11.867Z,84.10
2023-04-08T02:08:38.485Z,87.30
2023-04-08T02:11:05.642Z,89.63
2023-04-08T02:13:32.927Z,92.53
2023-04-08T02:16:24.205Z,94.95
2023-04-08T02:18:58.259Z,99.10
2023-04-08T02:21:44.311Z,94.95
2023-04-08T02:24:13.880Z,101.60
2023-04-08T02:26:43.880Z,99.30
2023-04-08T02:29:15.783Z,107.97
2023-04-08T02:31:43.943Z,109.32
2023-04-08T02:34:11.844Z,108.22
2023-04-08T02:36:40.970Z,113.68
2023-04-08T02:39:07.789Z,106.43
2023-04-08T02:41:34.670Z,115.13
2023-04-08T02:44:01.288Z,117.43
2023-04-08T02:46:27.964Z,111.68
2023-04-08T02:48:54.658Z,110.85
2023-04-08T02:51:21.569Z,114.63
2023-04-08T02:53:48.230Z,109.53
2023-04-08T02:56:14.910Z,110.57
2023-04-08T02:58:41.519Z,109.80
2023-04-08T03:01:09.082Z,112.97
2023-04-08T03:03:36.738Z,110.30
2023-04-08T03:06:03.773Z,113.82
2023-04-08T03:08:30.546Z,113.20
2023-04-08T03:10:57.168Z,119.95
2023-04-08T03:13:23.955Z,114.40
2023-04-08T03:15:50.858Z,119.18
2023-04-08T03:18:18.009Z,125.07
2023-04-08T03:20:44.679Z,115.30
2023-04-08T03:23:11.268Z,112.72
2023-04-08T03:25:38.138Z,112.97
2023-04-08T03:28:04.846Z,114.97
2023-04-08T03:30:31.841Z,105.07
2023-04-08T03:32:58.617Z,106.85
2023-04-08T03:35:25.576Z,107.32
2023-04-08T03:37:52.436Z,110.45
2023-04-08T03:40:19.143Z,114.68
2023-04-08T03:42:46.226Z,113.68
2023-04-08T03:45:12.834Z,121.38
2023-04-08T03:47:39.515Z,110.35
2023-04-08T03:50:06.639Z,124.45
2023-04-08T03:52:33.406Z,114.60
2023-04-08T03:54:59.995Z,121.03
2023-04-08T03:57:26.603Z,108.68
2023-04-08T03:59:53.495Z,109.97
2023-04-08T04:02:20.324Z,106.75
2023-04-08T04:04:47.096Z,111.50
2023-04-08T04:07:13.712Z,102.20
2023-04-08T04:09:40.440Z,101.90
2023-04-08T04:12:07.090Z,107.00
2023-04-08T04:14:33.716Z,108.72
2023-04-08T04:17:00.343Z,101.57
2023-04-08T04:19:31.297Z,95.75
2023-04-08T04:21:57.930Z,107.55
2023-04-08T04:24:24.592Z,108.05
2023-04-08T04:26:51.237Z,113.53
2023-04-08T04:29:17.932Z,112.13
2023-04-08T04:31:44.605Z,104.47
2023-04-08T04:34:11.432Z,111.68
2023-04-08T04:36:38.024Z,109.55
2023-04-08T04:39:04.688Z,106.53
2023-04-08T04:41:31.486Z,108.00
2023-04-08T04:43:58.288Z,113.55
2023-04-08T04:46:24.941Z,108.57
2023-04-08T04:48:51.899Z,109.63
2023-04-08T04:51:18.753Z,113.68
2023-04-08T04:53:45.417Z,106.70
2023-04-08T04:56:12.041Z,100.95
2023-04-08T04:58:39.032Z,109.53
2023-04-08T05:01:06.082Z,107.28
2023-04-08T05:03:32.715Z,106.38
2023-04-08T05:05:59.650Z,104.90
2023-04-08T05:08:27.843Z,107.57
2023-04-08T05:10:56.189Z,95.85
2023-04-08T05:13:22.968Z,103.03
2023-04-08T05:15:49.921Z,95.57
2023-04-08T05:18:16.623Z,100.40
2023-04-08T05:20:43.293Z,96.90
2023-04-08T05:23:09.967Z,101.45
2023-04-08T05:25:36.912Z,89.78
2023-04-08T05:28:04.335Z,101.13
2023-04-08T05:30:31.545Z,99.35
2023-04-08T05:33:00.311Z,98.30
2023-04-08T05:35:28.100Z,99.43
2023-04-08T05:37:54.740Z,93.45
2023-04-08T05:40:21.497Z,93.03
2023-04-08T05:42:48.294Z,89.65
2023-04-08T05:45:15.155Z,90.97
2023-04-08T05:47:41.897Z,92.88
2023-04-08T05:50:08.957Z,97.22
2023-04-08T05:52:35.620Z,96.45
2023-04-08T05:55:02.253Z,95.15
2023-04-08T05:57:28.849Z,85.22
2023-04-08T05:59:55.610Z,88.80
2023-04-08T06:02:22.453Z,89.03
2023-04-08T06:04:49.192Z,86.05
2023-04-08T06:07:16.023Z,78.38
2023-04-08T06:09:44.334Z,75.47
2023-04-08T06:12:12.052Z,79.23
2023-04-08T06:14:38.668Z,84.38
2023-04-08T06:17:05.518Z,72.75
2023-04-08T06:19:32.290Z,75.88
2023-04-08T06:21:59.362Z,71.57
2023-04-08T06:24:29.540Z,69.47
2023-04-08T06:29:23.834Z,72.57
2023-04-08T06:31:51.263Z,71.95
2023-04-08T06:34:18.005Z,70.03
2023-04-08T06:36:44.674Z,65.80
2023-04-08T06:39:11.355Z,72.05
2023-04-08T06:41:38.112Z,69.15
2023-04-08T06:44:04.873Z,64.57
2023-04-08T06:46:31.541Z,69.63
2023-04-08T06:48:58.148Z,71.53
2023-04-08T06:51:24.909Z,65.80
2023-04-08T06:53:52.030Z,58.97
2023-04-08T06:56:18.755Z,62.30
2023-04-08T06:58:45.497Z,62.85
2023-04-08T07:01:12.378Z,63.05
2023-04-08T07:03:39.143Z,56.83
2023-04-08T07:06:05.947Z,63.58
2023-04-08T07:08:32.893Z,55.20
2023-04-08T07:10:59.517Z,60.92
2023-04-08T07:13:26.136Z,57.67
2023-04-08T07:15:52.816Z,56.30
2023-04-08T07:18:21.417Z,58.15
2023-04-08T07:20:54.459Z,56.60
2023-04-08T07:23:21.681Z,61.22
2023-04-08T07:25:48.372Z,56.85
2023-04-08T07:28:15.202Z,53.53
2023-04-08T07:30:41.855Z,56.40
2023-04-08T07:33:08.683Z,59.90
2023-04-08T07:35:35.685Z,56.35
2023-04-08T07:38:02.486Z,55.22
2023-04-08T07:40:29.851Z,59.00
2023-04-08T07:42:56.852Z,61.40
2023-04-08T07:45:23.527Z,59.72
2023-04-08T07:47:50.565Z,66.50
2023-04-08T07:50:17.590Z,61.25
2023-04-08T07:52:44.362Z,65.35
2023-04-08T07:55:11.562Z,65.03
2023-04-08T07:57:38.502Z,56.20
2023-04-08T08:00:05.803Z,58.20
2023-04-08T08:02:34.287Z,53.80
2023-04-08T08:05:03.252Z,58.20
2023-04-08T08:07:30.201Z,54.63
2023-04-08T08:09:56.821Z,55.97
2023-04-08T08:12:23.532Z,50.42
2023-04-08T08:14:51.050Z,56.33
2023-04-08T08:17:17.696Z,50.10
2023-04-08T08:19:44.382Z,53.00
2023-04-08T08:22:12.227Z,49.00
2023-04-08T08:24:38.875Z,50.42
2023-04-08T08:27:06.392Z,52.85
2023-04-08T08:29:33.650Z,54.25
2023-04-08T08:32:00.307Z,50.80
2023-04-08T08:34:27.217Z,50.33
2023-04-08T08:36:53.855Z,50.45
2023-04-08T08:39:20.688Z,44.45
2023-04-08T08:41:47.367Z,48.92
2023-04-08T08:44:14.660Z,48.08
2023-04-08T08:46:45.439Z,56.72
2023-04-08T08:49:12.518Z,56.08
2023-04-08T08:51:40.842Z,46.20
2023-04-08T08:54:08.533Z,47.03
2023-04-08T08:56:35.401Z,43.70
2023-04-08T08:59:02.194Z,48.70
2023-04-08T09:01:40.609Z,49.67
2023-04-08T09:04:08.662Z,41.63
2023-04-08T09:06:36.833Z,48.22
2023-04-08T09:09:06.089Z,45.65
2023-04-08T09:11:33.488Z,42.70
2023-04-08T09:14:00.153Z,45.72
2023-04-08T09:16:27.801Z,47.80
2023-04-08T09:18:54.673Z,45.70
2023-04-08T09:21:27.363Z,42.55
2023-04-08T09:23:54.342Z,48.05
2023-04-08T09:26:24.516Z,42.72
2023-04-08T09:29:25.586Z,43.45
2023-04-08T09:31:57.771Z,41.70
2023-04-08T09:34:27.708Z,39.95
2023-04-08T09:36:55.746Z,42.20
2023-04-08T09:39:22.955Z,42.92
2023-04-08T09:41:51.161Z,44.58
2023-04-08T09:44:21.106Z,41.75
2023-04-08T09:49:29.956Z,40.88
2023-04-08T09:52:08.226Z,37.65
2023-04-08T09:54:59.902Z,38.65
2023-04-08T09:57:55.661Z,38.28
2023-04-08T10:00:28.808Z,37.65
2023-04-08T10:03:11.529Z,35.92
2023-04-08T10:05:40.739Z,33.53
2023-04-08T10:08:07.902Z,32.60
2023-04-08T10:10:40.281Z,31.98
2023-04-08T10:13:08.090Z,31.13
2023-04-08T10:15:36.882Z,31.17
2023-04-08T10:18:04.536Z,31.55
2023-04-08T10:20:34.577Z,30.05
2023-04-08T10:23:01.759Z,26.92
2023-04-08T10:25:30.773Z,26.90
2023-04-08T10:27:57.638Z,27.60
2023-04-08T10:30:33.357Z,26.48
2023-04-08T10:33:00.903Z,28.70
2023-04-08T10:35:31.353Z,23.85
2023-04-08T10:37:59.163Z,26.73
2023-04-08T10:40:26.320Z,27.58
2023-04-08T10:42:56.690Z,25.17
2023-04-08T10:45:23.973Z,23.70
2023-04-08T10:47:52.032Z,23.17
2023-04-08T10:50:21.261Z,26.45
2023-04-08T10:52:52.167Z,27.05
2023-04-08T10:55:29.578Z,24.60
2023-04-08T10:57:58.215Z,21.85
2023-04-08T11:00:35.719Z,21.17
2023-04-08T11:03:13.712Z,22.15
2023-04-08T11:05:42.534Z,18.70
2023-04-08T11:08:09.213Z,18.02
2023-04-08T11:10:39.480Z,18.80
2023-04-08T11:15:37.332Z,15.13
2023-04-08T11:18:05.644Z,15.27
2023-04-08T11:20:36.233Z,16.52
2023-04-08T11:23:03.610Z,14.75
2023-04-08T11:25:30.566Z,13.48
2023-04-08T11:27:57.369Z,13.93
2023-04-08T11:30:24.438Z,14.10
2023-04-08T11:32:52.454Z,15.07
2023-04-08T11:35:20.436Z,15.45
2023-04-08T11:37:47.818Z,14.05
2023-04-08T11:40:22.303Z,13.10
2023-04-08T11:42:49.992Z,13.95
2023-04-08T11:45:18.254Z,14.30
2023-04-08T11:47:45.960Z,12.80
2023-04-08T11:50:13.005Z,13.90
2023-04-08T11:52:53.359Z,11.80
2023-04-08T11:58:02.452Z,11.85
2023-04-08T12:00:29.224Z,13.45
2023-04-08T12:02:56.142Z,16.08
2023-04-08T12:05:22.926Z,12.95
2023-04-08T12:07:49.601Z,12.55
2023-04-08T12:10:16.364Z,14.15
2023-04-08T12:12:43.124Z,12.85
2023-04-08T12:15:10.482Z,13.32
2023-04-08T12:17:38.737Z,13.73
2023-04-08T12:20:06.618Z,13.68
2023-04-08T12:22:33.747Z,14.65
2023-04-08T12:25:00.495Z,14.27
2023-04-08T12:27:27.106Z,13.07
2023-04-08T12:29:53.874Z,13.27
2023-04-08T12:32:21.619Z,13.50
2023-04-08T12:34:48.334Z,13.55
2023-04-08T12:37:15.054Z,16.17
2023-04-08T12:39:41.994Z,13.85
2023-04-08T12:42:09.235Z,12.60
2023-04-08T12:44:35.995Z,13.38
2023-04-08T12:47:02.710Z,15.88
2023-04-08T12:49:30.824Z,14.32
2023-04-08T12:51:58.927Z,13.23
2023-04-08T12:54:25.657Z,13.73
2023-04-08T12:56:52.264Z,15.63
2023-04-08T12:59:19.275Z,13.38
2023-04-08T13:01:46.161Z,14.18
2023-04-08T13:04:12.840Z,13.60
2023-04-08T13:06:39.517Z,12.60
2023-04-08T13:09:06.181Z,12.57
2023-04-08T13:11:34.095Z,12.57
2023-04-08T13:14:00.768Z,12.10
2023-04-08T13:16:27.512Z,13.32
2023-04-08T13:18:54.222Z,14.02
2023-04-08T13:21:21.512Z,13.20
2023-04-08T13:23:48.261Z,12.32
2023-04-08T13:26:14.891Z,11.32
2023-04-08T13:28:55.906Z,10.95
2023-04-08T13:31:23.718Z,12.00
2023-04-08T13:33:50.583Z,11.07
2023-04-08T13:36:18.977Z,13.10
2023-04-08T13:38:46.228Z,11.85
2023-04-08T13:41:12.971Z,11.63
2023-04-08T13:43:39.651Z,11.77
2023-04-08T13:46:06.324Z,11.90
2023-04-08T13:48:33.016Z,11.77
2023-04-08T13:50:59.622Z,11.50
2023-04-08T13:53:26.322Z,12.02
2023-04-08T13:55:55.217Z,12.68
2023-04-08T13:58:24.350Z,11.98
2023-04-08T14:00:51.916Z,12.30
2023-04-08T14:03:19.466Z,11.27
2023-04-08T14:05:46.501Z,12.02
2023-04-08T14:08:13.850Z,9.95
2023-04-08T14:10:41.940Z,11.32
2023-04-08T14:13:09.347Z,12.80
2023-04-08T14:15:36.313Z,13.13
2023-04-08T14:18:03.131Z,12.77
2023-04-08T14:20:30.447Z,12.05
2023-04-08T14:22:57.119Z,12.38
2023-04-08T14:25:24.705Z,11.00
2023-04-08T14:27:58.552Z,15.27
2023-04-08T14:30:27.227Z,23.25
2023-04-08T14:32:54.611Z,16.23
2023-04-08T14:35:21.647Z,12.85
2023-04-08T14:37:48.352Z,12.20
2023-04-08T14:40:15.032Z,11.75
2023-04-08T14:42:41.847Z,14.75
2023-04-08T14:45:09.093Z,13.40
2023-04-08T14:47:36.020Z,14.40
2023-04-08T14:50:02.830Z,13.77
2023-04-08T14:52:29.593Z,12.43
2023-04-08T14:54:56.473Z,12.88
2023-04-08T14:57:23.127Z,13.75
2023-04-08T14:59:49.816Z,12.48
2023-04-08T15:02:16.729Z,14.23
2023-04-08T15:04:43.449Z,11.95
2023-04-08T15:07:10.227Z,11.50
2023-04-08T15:09:36.890Z,11.57
2023-04-08T15:12:03.807Z,11.90
2023-04-08T15:14:30.557Z,11.88
2023-04-08T15:16:57.233Z,11.32
2023-04-08T15:19:23.973Z,14.90
2023-04-08T15:21:50.675Z,12.60
2023-04-08T15:24:17.464Z,12.38
2023-04-08T15:26:44.090Z,11.98
2023-04-08T15:29:11.083Z,12.75
2023-04-08T15:31:37.883Z,12.32
2023-04-08T15:34:04.652Z,12.40
2023-04-08T15:36:31.406Z,12.55
2023-04-08T15:38:58.063Z,13.05
2023-04-08T15:41:24.751Z,15.70
2023-04-08T15:43:53.086Z,18.60
2023-04-08T15:46:22.942Z,23.42
2023-04-08T15:48:50.810Z,19.50
2023-04-08T15:51:18.043Z,13.80
2023-04-08T15:53:44.906Z,14.68
2023-04-08T15:56:18.443Z,15.18
2023-04-08T15:58:46.192Z,13.60
2023-04-08T16:01:13.691Z,15.35
2023-04-08T16:03:40.941Z,15.07
2023-04-08T16:06:08.587Z,14.90
2023-04-08T16:08:35.320Z,14.88
2023-04-08T16:11:03.574Z,15.60
2023-04-08T16:13:30.780Z,17.42
2023-04-08T16:15:58.523Z,16.10
2023-04-08T16:18:25.729Z,15.27
2023-04-08T16:20:52.616Z,18.33
2023-04-08T16:23:19.652Z,19.77
2023-04-08T16:25:46.711Z,19.98
2023-04-08T16:28:13.470Z,19.80
2023-04-08T16:30:43.514Z,18.95
2023-04-08T16:33:14.141Z,20.58
2023-04-08T16:35:40.804Z,21.13
2023-04-08T16:38:07.586Z,21.40
2023-04-08T16:40:34.963Z,21.10
2023-04-08T16:43:02.353Z,24.50
2023-04-08T16:45:30.177Z,22.35
2023-04-08T16:47:57.318Z,31.80
2023-04-08T16:50:24.382Z,27.08
2023-04-08T16:52:51.140Z,24.58
2023-04-08T16:55:18.159Z,26.70
2023-04-08T16:57:44.872Z,24.75
2023-04-08T17:00:11.865Z,24.77
2023-04-08T17:02:38.684Z,27.40
2023-04-08T17:05:06.319Z,27.52
2023-04-08T17:07:32.988Z,29.00
2023-04-08T17:09:59.886Z,27.20
2023-04-08T17:12:26.998Z,27.30
2023-04-08T17:14:54.109Z,27.02
2023-04-08T17:17:20.825Z,27.45
2023-04-08T17:19:47.526Z,28.98
2023-04-08T17:22:14.182Z,28.38
2023-04-08T17:24:40.889Z,27.35
2023-04-08T17:27:07.486Z,27.15
2023-04-08T17:29:34.178Z,26.63
2023-04-08T17:32:01.355Z,26.73
2023-04-08T17:34:29.176Z,28.65
2023-04-08T17:36:56.899Z,28.83
2023-04-08T17:39:23.548Z,27.33
2023-04-08T17:41:50.177Z,25.20
2023-04-08T17:44:17.400Z,26.25
2023-04-08T17:46:44.134Z,29.75
2023-04-08T17:49:14.204Z,32.80
2023-04-08T17:54:07.676Z,30.00
2023-04-08T17:56:34.405Z,26.75
2023-04-08T17:59:01.850Z,26.67
2023-04-08T18:01:28.747Z,27.40
2023-04-08T18:03:56.052Z,27.90
2023-04-08T18:06:22.847Z,28.60
2023-04-08T18:08:49.802Z,28.83
2023-04-08T18:11:16.430Z,29.60
2023-04-08T18:13:43.105Z,29.55
2023-04-08T18:16:17.260Z,31.15
2023-04-08T18:18:44.528Z,29.88
2023-04-08T18:21:11.210Z,34.88
2023-04-08T18:23:37.921Z,35.63
2023-04-08T18:26:04.648Z,36.80
2023-04-08T18:28:31.563Z,37.47
2023-04-08T18:30:58.405Z,34.63
2023-04-08T18:33:25.357Z,36.72
2023-04-08T18:35:52.791Z,37.03
2023-04-08T18:38:19.662Z,40.53
2023-04-08T18:40:46.620Z,38.80
2023-04-08T18:43:13.765Z,37.55
2023-04-08T18:45:41.246Z,38.10
2023-04-08T18:48:08.373Z,40.25
2023-04-08T18:50:35.217Z,37.85
2023-04-08T18:53:02.542Z,46.20
2023-04-08T18:55:29.347Z,48.88
2023-04-08T18:57:56.225Z,52.50
2023-04-08T19:00:23.024Z,45.88
2023-04-08T19:02:50.245Z,47.78
2023-04-08T19:05:17.852Z,44.22
2023-04-08T19:07:44.654Z,39.10
2023-04-08T19:10:11.295Z,46.05
2023-04-08T19:12:38.155Z,42.00
2023-04-08T19:15:05.381Z,42.10
2023-04-08T19:17:32.120Z,41.92
2023-04-08T19:19:58.906Z,41.92
2023-04-08T19:22:25.561Z,40.63
2023-04-08T19:24:54.832Z,39.38
2023-04-08T19:27:21.817Z,35.15
2023-04-08T19:29:48.425Z,37.88
2023-04-08T19:32:15.334Z,31.52
2023-04-08T19:34:42.472Z,37.45
2023-04-08T19:37:09.315Z,32.63
2023-04-08T19:39:36.110Z,31.33
2023-04-08T19:42:02.785Z,30.50
2023-04-08T19:44:29.386Z,31.45
2023-04-08T19:46:57.872Z,32.45
2023-04-08T19:49:24.863Z,36.67
2023-04-08T19:51:51.908Z,34.92
2023-04-08T19:54:18.536Z,35.60
2023-04-08T19:56:45.643Z,43.50
2023-04-08T19:59:12.584Z,39.72
2023-04-08T20:01:40.582Z,41.40
2023-04-08T20:04:07.289Z,38.42
2023-04-08T20:06:34.846Z,39.80
2023-04-08T20:09:05.453Z,39.95
2023-04-08T20:11:33.213Z,42.63
2023-04-08T20:13:59.949Z,43.72
2023-04-08T20:16:26.809Z,44.20
2023-04-08T20:18:53.661Z,43.42
2023-04-08T20:21:20.326Z,45.30
2023-04-08T20:23:47.384Z,40.63
2023-04-08T20:26:14.924Z,42.35
2023-04-08T20:28:43.546Z,51.13
2023-04-08T20:31:10.456Z,46.13
2023-04-08T20:33:43.757Z,47.67
2023-04-08T20:36:12.462Z,53.75
2023-04-08T20:38:39.821Z,49.97
2023-04-08T20:41:07.130Z,46.63
2023-04-08T20:43:34.087Z,51.15
2023-04-08T20:46:01.067Z,51.03
2023-04-08T20:48:29.644Z,54.38
2023-04-08T20:50:57.532Z,47.95
2023-04-08T20:53:24.605Z,47.50
2023-04-08T20:55:51.938Z,48.78
2023-04-08T20:58:18.688Z,51.33
2023-04-08T21:00:47.468Z,50.10
2023-04-08T21:03:15.453Z,48.47
2023-04-08T21:05:42.344Z,51.80
2023-04-08T21:08:09.427Z,45.20
2023-04-08T21:10:36.190Z,46.10
2023-04-08T21:13:02.961Z,49.92
2023-04-08T21:15:29.748Z,47.78
2023-04-08T21:17:56.470Z,47.38
2023-04-08T21:20:23.351Z,49.75
2023-04-08T21:22:50.103Z,41.33
2023-04-08T21:25:18.048Z,43.35
2023-04-08T21:27:44.869Z,44.53
2023-04-08T21:30:11.930Z,42.25
2023-04-08T21:32:38.947Z,42.60
2023-04-08T21:35:05.860Z,44.85
2023-04-08T21:37:32.533Z,43.30
2023-04-08T21:39:59.162Z,45.80
2023-04-08T21:42:26.416Z,39.92
2023-04-08T21:44:53.070Z,38.45
2023-04-08T21:47:19.723Z,46.58
2023-04-08T21:49:46.490Z,38.83
2023-04-08T21:52:13.245Z,42.80
2023-04-08T21:54:39.886Z,41.47
2023-04-08T21:57:06.536Z,42.55
2023-04-08T21:59:33.201Z,47.03
2023-04-08T22:01:59.944Z,48.47
2023-04-08T22:04:27.839Z,46.55
2023-04-08T22:06:54.636Z,45.38
2023-04-08T22:09:21.531Z,44.50
2023-04-08T22:11:48.218Z,44.17
2023-04-08T22:14:15.594Z,47.42
2023-04-08T22:16:43.102Z,48.90
2023-04-08T22:19:09.864Z,48.13
2023-04-08T22:21:36.652Z,52.15
2023-04-08T22:24:03.945Z,58.92
2023-04-08T22:26:30.576Z,55.78
2023-04-08T22:28:57.181Z,57.72
2023-04-08T22:31:24.047Z,56.40
2023-04-08T22:33:50.648Z,55.55
2023-04-08T22:36:17.275Z,53.35
2023-04-08T22:38:43.925Z,53.92
2023-04-08T22:41:20.940Z,63.13
2023-04-08T22:43:48.040Z,52.30
2023-04-08T22:46:15.167Z,56.25
2023-04-08T22:48:41.944Z,58.88
2023-04-08T22:51:09.284Z,54.90
2023-04-08T22:53:36.484Z,50.65
2023-04-08T22:56:03.801Z,51.20
2023-04-08T22:58:31.035Z,55.00
2023-04-08T23:00:58.286Z,65.65
2023-04-08T23:03:25.036Z,55.13
2023-04-08T23:05:51.821Z,59.28
2023-04-08T23:08:18.476Z,64.03
2023-04-08T23:10:45.328Z,60.70
2023-04-08T23:13:13.971Z,58.20
2023-04-08T23:15:40.862Z,58.60
2023-04-08T23:18:07.566Z,63.17
2023-04-08T23:20:35.506Z,63.85
2023-04-08T23:23:03.483Z,54.10
2023-04-08T23:25:30.604Z,56.97
2023-04-08T23:27:57.333Z,60.40
2023-04-08T23:30:23.932Z,55.95
2023-04-08T23:32:50.870Z,50.92
2023-04-08T23:35:17.887Z,53.13
2023-04-08T23:37:44.624Z,60.58
2023-04-08T23:40:11.472Z,58.55
2023-04-08T23:42:38.179Z,59.67
2023-04-08T23:45:05.915Z,56.45
2023-04-08T23:47:32.549Z,53.47
2023-04-08T23:49:59.431Z,52.58
2023-04-08T23:52:26.221Z,52.58
2023-04-08T23:54:52.835Z,53.28
2023-04-08T23:57:20.397Z,56.30
2023-04-08T23:59:47.755Z,54.65
